Time;durP1;ratioP1;P1;durP2;ratioP2;P2;SDS_P1;SDS_P2;PMS_P1;PMS_P2;Temp;Humidity;BMP_temperature;BMP_pressure;BME280_temperature;BME280_humidity;BME280_pressure;Samples;Min_cycle;Max_cycle;Signal;HPM_P1;HPM_P2
2022/06/09 00:02:01;;;;;;;36.65;12.50;;;14.10;99.90;;;;;;5073921;28;20537;-65
2022/06/09 00:04:39;;;;;;;49.83;13.82;;;14.10;99.90;;;;;;5083458;28;20422;-65
2022/06/09 00:07:10;;;;;;;37.70;12.25;;;13.90;99.90;;;;;;5081896;28;20381;-65
2022/06/09 00:09:42;;;;;;;34.33;12.07;;;14.10;99.90;;;;;;5072219;28;20101;-65
2022/06/09 00:12:08;;;;;;;42.47;12.10;;;13.90;99.90;;;;;;5072579;28;20039;-65
2022/06/09 00:14:35;;;;;;;29.70;10.57;;;14.20;99.90;;;;;;5071205;28;20420;-65
2022/06/09 00:17:00;;;;;;;39.97;11.80;;;14.20;99.90;;;;;;5072535;28;20033;-65
2022/06/09 00:19:27;;;;;;;44.25;12.20;;;13.90;99.90;;;;;;5071008;28;20043;-65
2022/06/09 00:21:53;;;;;;;31.35;11.13;;;13.90;99.90;;;;;;5071908;28;20122;-65
2022/06/09 00:24:19;;;;;;;40.03;11.63;;;13.90;99.90;;;;;;5071428;28;20044;-64
2022/06/09 00:26:44;;;;;;;37.65;11.40;;;13.90;99.90;;;;;;5072302;28;20051;-65
2022/06/09 00:29:10;;;;;;;30.98;11.45;;;13.80;99.90;;;;;;5071310;28;20032;-65
2022/06/09 00:31:36;;;;;;;38.95;12.65;;;14.00;99.90;;;;;;5071190;28;20041;-65
2022/06/09 00:34:01;;;;;;;45.88;12.57;;;13.80;99.90;;;;;;5069656;28;20427;-65
2022/06/09 00:36:28;;;;;;;37.00;11.88;;;13.80;99.90;;;;;;5078876;28;20044;-65
2022/06/09 00:38:54;;;;;;;46.50;12.07;;;13.80;99.90;;;;;;5076931;28;20036;-65
2022/06/09 00:41:20;;;;;;;35.67;11.70;;;13.90;99.90;;;;;;5073666;28;20043;-65
2022/06/09 00:43:46;;;;;;;55.45;13.88;;;13.90;99.90;;;;;;5079673;28;20051;-65
2022/06/09 00:46:17;;;;;;;33.85;12.00;;;13.90;99.90;;;;;;5078131;28;20437;-65
2022/06/09 00:49:09;;;;;;;32.55;13.20;;;13.90;99.90;;;;;;5068533;28;20545;-65
2022/06/09 00:51:42;;;;;;;39.17;12.38;;;13.80;99.90;;;;;;5070877;28;20051;-65
2022/06/09 00:54:20;;;;;;;51.22;13.27;;;13.70;99.90;;;;;;5069202;28;20769;-65
2022/06/09 00:57:09;;;;;;;32.25;12.73;;;14.00;99.90;;;;;;5078210;28;20510;-65
2022/06/09 00:59:36;;;;;;;38.25;13.10;;;14.00;99.90;;;;;;5073531;28;21323;-65
2022/06/09 01:02:06;;;;;;;35.90;12.88;;;13.90;99.90;;;;;;5080936;28;20127;-65
2022/06/09 01:04:33;;;;;;;37.67;12.60;;;13.90;99.90;;;;;;5070426;28;20067;-65
2022/06/09 01:07:05;;;;;;;47.45;14.35;;;14.00;99.90;;;;;;5081115;28;20040;-65
2022/06/09 01:09:31;;;;;;;35.65;13.18;;;14.00;99.90;;;;;;5072893;28;20466;-65
2022/06/09 01:11:58;;;;;;;43.20;13.73;;;14.00;99.90;;;;;;5071957;28;20128;-66
2022/06/09 01:14:29;;;;;;;35.10;12.95;;;13.90;99.90;;;;;;5078833;28;20524;-65
2022/06/09 01:17:13;;;;;;;38.95;13.40;;;13.90;99.90;;;;;;5081110;28;20369;-65
2022/06/09 01:20:05;;;;;;;40.92;13.65;;;14.00;99.90;;;;;;5073362;28;20043;-65
2022/06/09 01:22:51;;;;;;;53.35;14.35;;;13.90;99.90;;;;;;5079082;28;20040;-65
2022/06/09 01:25:43;;;;;;;38.40;11.68;;;14.00;99.90;;;;;;5089978;28;20437;-65
2022/06/09 01:28:29;;;;;;;61.17;15.13;;;14.10;99.90;;;;;;5069264;28;20043;-65
2022/06/09 01:30:59;;;;;;;37.28;12.98;;;13.80;99.90;;;;;;5072794;28;20032;-66
2022/06/09 01:33:55;;;;;;;35.92;13.07;;;14.00;99.90;;;;;;5069387;28;20077;-65
2022/06/09 01:36:30;;;;;;;47.88;13.32;;;13.90;99.90;;;;;;5069950;28;20054;-66
2022/06/09 01:38:57;;;;;;;45.03;12.60;;;14.10;99.90;;;;;;5074686;28;20039;-65
2022/06/09 01:41:24;;;;;;;37.70;13.02;;;14.00;99.90;;;;;;5092194;28;20036;-66
2022/06/09 01:43:52;;;;;;;39.75;12.60;;;14.10;99.90;;;;;;5082596;28;20052;-66
2022/06/09 01:46:31;;;;;;;51.25;14.88;;;13.90;99.90;;;;;;5076819;28;20036;-66
2022/06/09 01:49:04;;;;;;;48.58;14.48;;;14.10;99.90;;;;;;5073430;28;20380;-65
2022/06/09 01:51:34;;;;;;;44.28;13.15;;;13.90;99.90;;;;;;5069259;28;20048;-65
2022/06/09 01:54:17;;;;;;;50.63;14.07;;;13.80;99.90;;;;;;5070878;28;20048;-64
2022/06/09 01:56:51;;;;;;;42.05;14.57;;;13.80;99.90;;;;;;5071780;28;20041;-65
2022/06/09 01:59:28;;;;;;;27.15;11.63;;;13.90;99.90;;;;;;5070340;28;20392;-65
2022/06/09 02:02:25;;;;;;;40.08;13.02;;;13.80;99.90;;;;;;5072197;28;20036;-65
2022/06/09 02:04:59;;;;;;;40.78;12.95;;;13.80;99.90;;;;;;5062980;28;20043;-66
2022/06/09 02:07:27;;;;;;;41.80;13.07;;;13.80;99.90;;;;;;5085027;28;20045;-65
2022/06/09 02:09:54;;;;;;;52.58;14.98;;;13.90;99.90;;;;;;5071126;28;20388;-65
2022/06/09 02:12:23;;;;;;;35.85;12.50;;;13.70;99.90;;;;;;5076769;28;20407;-65
2022/06/09 02:14:52;;;;;;;59.13;14.55;;;14.00;99.90;;;;;;5070632;28;20123;-65
2022/06/09 02:17:18;;;;;;;38.97;13.55;;;13.70;99.90;;;;;;5081678;28;20052;-65
2022/06/09 02:19:45;;;;;;;50.55;13.85;;;13.90;99.90;;;;;;5073826;28;20091;-65
2022/06/09 02:22:12;;;;;;;42.55;13.38;;;13.90;99.90;;;;;;5081922;28;20067;-65
2022/06/09 02:24:38;;;;;;;41.13;12.70;;;13.90;99.90;;;;;;5072356;28;20056;-65
2022/06/09 02:27:05;;;;;;;43.45;12.70;;;13.90;99.90;;;;;;5074630;28;20047;-65
2022/06/09 02:29:32;;;;;;;36.10;12.73;;;13.70;99.90;;;;;;5073171;28;20040;-65
2022/06/09 02:31:58;;;;;;;48.97;13.10;;;13.60;99.90;;;;;;5087841;28;20541;-65
2022/06/09 02:34:23;;;;;;;35.40;11.85;;;13.60;99.90;;;;;;5073648;28;20043;-66
2022/06/09 02:36:49;;;;;;;36.30;12.27;;;13.70;99.90;;;;;;5074082;28;20044;-65
2022/06/09 02:39:15;;;;;;;44.88;12.75;;;13.60;99.90;;;;;;5079145;28;20071;-65
2022/06/09 02:41:41;;;;;;;39.92;12.50;;;13.70;99.90;;;;;;5091445;28;20455;-66
2022/06/09 02:44:06;;;;;;;43.67;12.48;;;13.70;99.90;;;;;;5074047;28;20048;-65
2022/06/09 02:46:32;;;;;;;39.17;12.82;;;13.70;99.90;;;;;;5074485;28;20190;-65
2022/06/09 02:48:58;;;;;;;38.92;13.48;;;13.70;99.90;;;;;;5072125;28;20048;-66
2022/06/09 02:51:34;;;;;;;31.20;12.13;;;13.70;99.90;;;;;;5073550;28;20036;-65
2022/06/09 02:54:03;;;;;;;31.75;12.13;;;13.60;99.90;;;;;;5072834;28;20049;-66
2022/06/09 02:56:29;;;;;;;42.40;13.13;;;13.70;99.90;;;;;;5073218;28;20048;-65
2022/06/09 02:58:56;;;;;;;38.63;13.90;;;13.70;99.90;;;;;;5074029;28;20032;-65
2022/06/09 03:01:23;;;;;;;36.63;13.27;;;13.60;99.90;;;;;;5074557;28;22068;-65
2022/06/09 03:03:49;;;;;;;50.55;15.38;;;13.60;99.90;;;;;;5076011;28;20028;-66
2022/06/09 03:06:15;;;;;;;40.15;15.45;;;13.60;99.90;;;;;;5072652;28;20046;-65
2022/06/09 03:08:41;;;;;;;51.75;15.82;;;13.70;99.90;;;;;;5073477;28;20040;-65
2022/06/09 03:11:07;;;;;;;54.25;17.63;;;13.50;99.90;;;;;;5080578;28;20065;-65
2022/06/09 03:13:33;;;;;;;44.22;16.98;;;13.50;99.90;;;;;;5073289;28;20516;-65
2022/06/09 03:15:58;;;;;;;67.15;19.27;;;13.60;99.90;;;;;;5081478;28;20122;-65
2022/06/09 03:18:24;;;;;;;52.75;19.25;;;13.50;99.90;;;;;;5071918;28;20051;-65
2022/06/09 03:20:50;;;;;;;60.35;18.73;;;13.50;99.90;;;;;;5072097;28;20075;-65
2022/06/09 03:23:16;;;;;;;44.25;17.85;;;13.40;99.90;;;;;;5073521;28;20040;-65
2022/06/09 03:25:44;;;;;;;42.75;17.17;;;13.60;99.90;;;;;;5072803;28;20090;-65
2022/06/09 03:28:11;;;;;;;43.25;17.52;;;13.40;99.90;;;;;;5072086;28;20037;-65
2022/06/09 03:30:36;;;;;;;41.10;17.08;;;13.40;99.90;;;;;;5075371;28;20051;-65
2022/06/09 03:33:02;;;;;;;40.08;16.67;;;13.50;99.90;;;;;;5073448;28;20111;-66
2022/06/09 03:35:29;;;;;;;34.67;16.38;;;13.50;99.90;;;;;;5071850;28;20040;-66
2022/06/09 03:37:56;;;;;;;39.17;16.67;;;13.50;99.90;;;;;;5071695;28;20036;-65
2022/06/09 03:40:23;;;;;;;41.72;16.63;;;13.30;99.90;;;;;;5073279;28;20095;-65
2022/06/09 03:42:50;;;;;;;33.78;15.13;;;13.20;99.90;;;;;;5073014;28;20436;-65
2022/06/09 03:45:16;;;;;;;42.17;16.10;;;13.30;99.90;;;;;;5085556;28;20040;-66
2022/06/09 03:47:42;;;;;;;36.10;15.07;;;13.10;99.90;;;;;;5086783;28;20033;-66
2022/06/09 03:50:13;;;;;;;26.58;14.00;;;13.00;99.90;;;;;;5083220;28;20109;-66
2022/06/09 03:52:39;;;;;;;39.05;15.02;;;13.00;99.90;;;;;;5076904;28;20472;-65
2022/06/09 03:55:04;;;;;;;34.15;14.43;;;13.10;99.90;;;;;;5072316;28;20028;-65
2022/06/09 03:57:30;;;;;;;36.53;13.88;;;13.20;99.90;;;;;;5071265;28;20107;-65
2022/06/09 03:59:56;;;;;;;32.55;13.20;;;13.20;99.90;;;;;;5070980;28;20044;-65
2022/06/09 04:02:23;;;;;;;22.60;12.27;;;13.10;99.90;;;;;;5071123;28;20132;-65
2022/06/09 04:04:49;;;;;;;30.50;12.50;;;13.20;99.90;;;;;;5073505;28;20032;-65
2022/06/09 04:07:15;;;;;;;27.38;12.85;;;13.20;99.90;;;;;;5071683;28;20050;-66
2022/06/09 04:09:41;;;;;;;26.60;11.32;;;13.40;99.90;;;;;;5070340;28;20119;-65
2022/06/09 04:12:07;;;;;;;29.98;12.27;;;13.40;99.90;;;;;;5073306;28;20460;-66
2022/06/09 04:14:32;;;;;;;26.45;11.05;;;13.30;99.90;;;;;;5075948;28;20050;-66
2022/06/09 04:16:58;;;;;;;31.73;10.57;;;13.30;99.90;;;;;;5071146;28;20037;-66
2022/06/09 04:19:23;;;;;;;27.73;11.10;;;13.30;99.90;;;;;;5070338;28;20032;-65
2022/06/09 04:21:49;;;;;;;25.02;10.63;;;13.30;99.90;;;;;;5082688;28;20044;-66
2022/06/09 04:24:16;;;;;;;29.75;10.70;;;13.50;99.90;;;;;;5070847;28;20046;-66
2022/06/09 04:26:42;;;;;;;27.90;10.18;;;13.30;99.90;;;;;;5072261;28;20040;-65
2022/06/09 04:29:11;;;;;;;24.50;9.95;;;13.30;99.90;;;;;;5071650;28;20524;-65
2022/06/09 04:31:38;;;;;;;35.40;10.18;;;13.40;99.90;;;;;;5086169;28;20028;-65
2022/06/09 04:34:04;;;;;;;28.40;10.52;;;13.40;99.90;;;;;;5070422;28;20044;-66
2022/06/09 04:36:30;;;;;;;24.63;9.82;;;13.40;99.90;;;;;;5074114;28;20395;-66
2022/06/09 04:38:56;;;;;;;26.83;10.40;;;13.30;99.90;;;;;;5076918;28;20041;-65
2022/06/09 04:41:22;;;;;;;20.92;10.52;;;13.30;99.90;;;;;;5074212;28;20048;-65
2022/06/09 04:43:48;;;;;;;29.10;9.77;;;13.30;99.90;;;;;;5081980;28;20055;-65
2022/06/09 04:46:17;;;;;;;27.45;10.27;;;13.50;99.90;;;;;;5081113;28;20036;-65
2022/06/09 04:48:43;;;;;;;20.17;9.57;;;13.40;99.90;;;;;;5072732;28;20093;-65
2022/06/09 04:51:11;;;;;;;20.30;9.60;;;13.50;99.90;;;;;;5073486;28;20044;-66
2022/06/09 04:53:37;;;;;;;21.02;9.65;;;13.50;99.90;;;;;;5072308;28;20506;-66
2022/06/09 04:56:04;;;;;;;21.60;9.65;;;13.50;99.90;;;;;;5076292;28;20505;-66
2022/06/09 04:58:29;;;;;;;27.55;11.65;;;13.50;99.90;;;;;;5075138;28;20046;-66
2022/06/09 05:00:55;;;;;;;22.48;11.07;;;13.50;99.90;;;;;;5076112;28;20044;-65
2022/06/09 05:03:21;;;;;;;28.40;11.57;;;13.70;99.90;;;;;;5082191;28;20483;-66
2022/06/09 05:05:48;;;;;;;24.30;11.23;;;13.60;99.90;;;;;;5071197;28;20038;-65
2022/06/09 05:08:14;;;;;;;20.02;11.15;;;13.60;99.90;;;;;;5071309;28;20405;-66
2022/06/09 05:10:42;;;;;;;28.25;11.35;;;13.70;99.90;;;;;;5078733;28;20364;-66
2022/06/09 05:13:09;;;;;;;21.83;10.98;;;13.70;99.90;;;;;;5083490;28;20044;-66
2022/06/09 05:15:54;;;;;;;25.15;11.35;;;13.80;99.90;;;;;;5077034;28;20561;-65
2022/06/09 05:18:22;;;;;;;22.67;11.07;;;13.70;99.90;;;;;;5070269;28;20461;-66
2022/06/09 05:20:49;;;;;;;23.42;11.13;;;13.80;99.90;;;;;;5082534;28;20425;-65
2022/06/09 05:23:15;;;;;;;24.98;11.38;;;13.70;99.90;;;;;;5071588;28;20048;-66
2022/06/09 05:25:40;;;;;;;24.30;12.52;;;13.80;99.90;;;;;;5071298;28;20044;-66
2022/06/09 05:28:06;;;;;;;26.70;13.80;;;13.70;99.90;;;;;;5073664;28;20046;-66
2022/06/09 05:30:32;;;;;;;29.25;14.25;;;13.60;99.90;;;;;;5071862;28;20117;-65
2022/06/09 05:32:57;;;;;;;30.02;14.65;;;13.70;99.90;;;;;;5090775;28;20436;-65
2022/06/09 05:35:24;;;;;;;30.67;15.85;;;13.70;99.90;;;;;;5083215;28;20115;-66
2022/06/09 05:46:04;;;;;;;29.45;16.63;;;13.90;99.90;;;;;;5071682;28;20055;-66
2022/06/09 05:48:29;;;;;;;27.40;15.70;;;13.80;99.90;;;;;;5071137;28;20075;-66
2022/06/09 05:50:55;;;;;;;26.13;16.02;;;13.80;99.90;;;;;;5073911;28;20408;-66
2022/06/09 05:53:21;;;;;;;27.65;15.85;;;13.80;99.90;;;;;;5095860;28;20380;-66
2022/06/09 05:55:46;;;;;;;27.48;15.80;;;13.80;99.90;;;;;;5082794;28;20040;-65
2022/06/09 05:58:12;;;;;;;32.50;16.83;;;13.60;99.90;;;;;;5075444;28;20048;-66
2022/06/09 06:00:41;;;;;;;28.77;16.25;;;13.70;99.90;;;;;;5074315;28;20036;-66
2022/06/09 06:03:07;;;;;;;34.88;17.50;;;13.70;99.90;;;;;;5078547;28;20055;-66
2022/06/09 06:08:17;;;;;;;33.50;16.33;;;13.70;99.90;;;;;;5075165;28;20048;-66
2022/06/09 06:10:42;;;;;;;35.78;17.25;;;13.90;99.90;;;;;;5074594;28;20041;-67
2022/06/09 06:13:08;;;;;;;30.67;17.02;;;13.80;99.90;;;;;;5075305;28;20127;-66
2022/06/09 06:15:33;;;;;;;36.95;18.38;;;13.90;99.90;;;;;;5075541;28;20126;-65
2022/06/09 06:18:03;;;;;;;31.55;17.73;;;13.80;99.90;;;;;;5074460;28;20033;-66
2022/06/09 06:20:30;;;;;;;37.38;18.35;;;14.00;99.90;;;;;;5072143;28;20055;-66
2022/06/09 06:22:55;;;;;;;39.65;19.15;;;14.00;99.90;;;;;;5074400;28;20133;-66
2022/06/09 06:25:22;;;;;;;35.55;19.35;;;14.00;99.90;;;;;;5087600;28;20079;-67
2022/06/09 06:27:47;;;;;;;36.38;18.60;;;14.00;99.90;;;;;;5087182;28;20476;-66
2022/06/09 06:30:13;;;;;;;34.78;17.45;;;14.20;99.90;;;;;;5075985;28;20119;-66
2022/06/09 06:32:38;;;;;;;37.28;19.13;;;14.20;99.90;;;;;;5084936;28;20063;-67
2022/06/09 06:35:05;;;;;;;39.85;20.65;;;14.30;99.90;;;;;;5080473;28;20063;-66
2022/06/09 06:37:30;;;;;;;34.63;19.48;;;14.20;99.90;;;;;;5089476;28;20119;-66
2022/06/09 06:39:56;;;;;;;37.45;19.48;;;14.30;99.90;;;;;;5084396;28;20577;-66
2022/06/09 06:42:21;;;;;;;35.47;19.48;;;14.30;99.90;;;;;;5079354;28;20067;-66
2022/06/09 06:44:47;;;;;;;40.90;20.55;;;14.50;99.90;;;;;;5074925;28;20500;-66
2022/06/09 06:47:12;;;;;;;37.55;20.75;;;14.50;99.90;;;;;;5101961;28;20048;-66
2022/06/09 06:49:38;;;;;;;35.20;19.25;;;14.70;99.90;;;;;;5074046;28;20045;-65
2022/06/09 06:52:04;;;;;;;32.28;20.08;;;14.80;99.90;;;;;;5075406;28;20048;-66
2022/06/09 06:54:30;;;;;;;32.47;18.95;;;15.10;99.90;;;;;;5081708;28;20624;-66
2022/06/09 06:56:55;;;;;;;36.03;20.70;;;15.20;99.90;;;;;;5081521;28;20032;-66
2022/06/09 06:59:21;;;;;;;33.17;20.45;;;15.50;99.90;;;;;;5079643;28;20583;-66
2022/06/09 07:01:47;;;;;;;29.95;18.27;;;15.60;99.90;;;;;;5075896;28;20087;-67
2022/06/09 07:04:13;;;;;;;27.92;17.02;;;15.80;99.90;;;;;;5072458;28;20047;-66
2022/06/09 07:06:38;;;;;;;30.17;17.15;;;15.80;99.90;;;;;;5083352;28;20383;-66
2022/06/09 07:09:04;;;;;;;27.55;17.00;;;15.90;99.90;;;;;;5081498;28;20044;-66
2022/06/09 07:11:29;;;;;;;30.23;17.25;;;16.00;99.90;;;;;;5074670;28;20043;-66
2022/06/09 07:13:55;;;;;;;22.92;15.63;;;16.10;99.90;;;;;;5073480;28;20045;-66
2022/06/09 07:16:21;;;;;;;24.95;16.08;;;16.30;99.90;;;;;;5086138;28;20094;-66
2022/06/09 07:18:46;;;;;;;24.33;15.38;;;16.60;99.90;;;;;;5089843;28;20047;-66
2022/06/09 07:21:13;;;;;;;27.02;16.10;;;16.60;99.90;;;;;;5075066;28;20039;-66
2022/06/09 07:23:39;;;;;;;19.88;13.65;;;16.50;99.90;;;;;;5072515;28;20048;-67
2022/06/09 07:26:05;;;;;;;18.83;13.40;;;16.60;99.90;;;;;;5074814;28;20047;-66
2022/06/09 07:28:31;;;;;;;22.08;13.90;;;16.90;99.90;;;;;;5074533;28;20079;-67
2022/06/09 07:30:59;;;;;;;21.77;13.45;;;16.90;99.90;;;;;;5072748;28;20108;-66
2022/06/09 07:33:31;;;;;;;17.20;12.80;;;17.40;99.90;;;;;;5070896;28;20128;-66
2022/06/09 07:35:57;;;;;;;17.10;12.43;;;17.60;99.90;;;;;;5074425;28;20089;-66
2022/06/09 07:38:24;;;;;;;13.52;10.43;;;17.60;99.90;;;;;;5076632;28;20043;-66
2022/06/09 07:40:51;;;;;;;16.35;11.38;;;17.60;99.90;;;;;;5084744;28;20506;-66
2022/06/09 07:43:19;;;;;;;13.68;10.30;;;18.00;99.90;;;;;;5081148;28;20122;-66
2022/06/09 07:45:47;;;;;;;12.93;9.10;;;18.20;99.90;;;;;;5076828;28;20036;-66
2022/06/09 07:48:13;;;;;;;11.63;9.00;;;18.20;99.90;;;;;;5074061;28;20481;-66
2022/06/09 07:50:39;;;;;;;11.15;7.72;;;18.30;99.90;;;;;;5084740;28;20093;-66
2022/06/09 07:53:06;;;;;;;8.50;7.68;;;18.20;99.90;;;;;;5074472;28;20127;-67
2022/06/09 07:55:32;;;;;;;10.13;8.20;;;18.50;99.90;;;;;;5079173;28;20051;-67
2022/06/09 07:57:58;;;;;;;9.75;6.82;;;18.60;99.90;;;;;;5086939;28;20081;-67
2022/06/09 08:00:25;;;;;;;9.27;7.40;;;18.90;99.90;;;;;;5085005;28;20044;-67
2022/06/09 08:02:51;;;;;;;9.55;6.85;;;18.70;99.90;;;;;;5086596;28;20075;-66
2022/06/09 08:05:19;;;;;;;8.45;6.68;;;18.80;99.90;;;;;;5072682;28;20036;-66
2022/06/09 08:07:46;;;;;;;7.28;6.15;;;19.10;99.90;;;;;;5080368;28;20384;-66
2022/06/09 08:10:17;;;;;;;7.45;5.32;;;19.20;99.90;;;;;;5075393;28;20043;-66
2022/06/09 08:12:44;;;;;;;5.90;4.70;;;19.50;99.90;;;;;;5091880;28;20065;-66
2022/06/09 08:15:10;;;;;;;6.85;4.55;;;19.70;99.90;;;;;;5091177;28;20048;-66
2022/06/09 08:17:38;;;;;;;8.48;5.32;;;19.50;99.90;;;;;;5075461;28;20037;-66
2022/06/09 08:20:05;;;;;;;8.80;5.85;;;19.40;99.90;;;;;;5073163;28;20036;-66
2022/06/09 08:22:31;;;;;;;7.13;5.18;;;19.50;99.90;;;;;;5090996;28;20036;-66
2022/06/09 08:24:57;;;;;;;5.80;4.65;;;19.50;99.90;;;;;;5089563;28;20398;-66
2022/06/09 08:27:23;;;;;;;5.97;4.20;;;19.90;99.90;;;;;;5084164;28;20046;-66
2022/06/09 08:29:49;;;;;;;5.95;3.45;;;20.30;99.90;;;;;;5085734;28;20040;-66
2022/06/09 08:32:15;;;;;;;4.07;3.22;;;20.30;99.90;;;;;;5088974;28;20036;-66
2022/06/09 08:34:40;;;;;;;5.05;3.30;;;20.50;99.90;;;;;;5073756;28;20395;-67
2022/06/09 08:37:06;;;;;;;3.90;2.55;;;20.40;99.80;;;;;;5072517;28;20076;-67
2022/06/09 08:39:32;;;;;;;4.13;2.55;;;20.80;99.00;;;;;;5084044;28;20144;-67
2022/06/09 08:42:16;;;;;;;3.97;3.22;;;21.10;98.30;;;;;;5071525;28;20679;-66
2022/06/09 08:44:51;;;;;;;6.22;3.00;;;21.00;92.50;;;;;;5089111;28;20082;-66
2022/06/09 08:47:38;;;;;;;5.18;3.08;;;21.10;97.00;;;;;;5093114;28;20376;-67
2022/06/09 08:50:21;;;;;;;3.97;2.22;;;21.40;93.60;;;;;;5077937;28;20159;-65
2022/06/09 08:53:09;;;;;;;4.72;2.38;;;21.90;90.60;;;;;;5072759;28;20050;-66
2022/06/09 08:55:47;;;;;;;4.07;1.70;;;22.30;90.00;;;;;;5086423;28;20606;-66
2022/06/09 08:58:34;;;;;;;3.45;1.42;;;22.50;82.10;;;;;;5080587;28;20442;-67
2022/06/09 09:01:08;;;;;;;3.20;1.88;;;23.60;85.80;;;;;;5074079;28;20116;-67
2022/06/09 09:03:42;;;;;;;5.55;1.63;;;23.10;82.00;;;;;;5079007;28;20051;-66
2022/06/09 09:06:23;;;;;;;3.53;1.40;;;22.40;75.60;;;;;;5071107;28;20145;-66
2022/06/09 09:08:51;;;;;;;3.90;1.70;;;22.20;82.60;;;;;;5071133;28;20544;-67
2022/06/09 09:11:42;;;;;;;3.72;1.40;;;22.50;85.90;;;;;;5072413;28;20108;-67
2022/06/09 09:14:14;;;;;;;2.45;1.55;;;23.60;80.10;;;;;;5073008;28;20041;-67
2022/06/09 09:16:54;;;;;;;4.25;1.60;;;24.50;77.40;;;;;;5078983;28;20070;-67
2022/06/09 09:19:52;;;;;;;3.28;1.52;;;24.40;77.90;;;;;;5073944;28;20400;-66
2022/06/09 09:22:55;;;;;;;3.28;1.40;;;23.90;71.30;;;;;;5074258;28;20089;-67
2022/06/09 09:25:24;;;;;;;2.90;1.00;;;24.20;71.50;;;;;;5090373;28;20137;-66
2022/06/09 09:28:05;;;;;;;2.72;1.00;;;24.70;74.90;;;;;;5070765;28;20040;-67
2022/06/09 09:30:34;;;;;;;;;;;24.50;71.60;;;;;;5072115;28;20492;-66
2022/06/09 09:33:00;;;;;;;1.77;1.07;;;23.50;70.90;;;;;;5078617;28;20393;-66
2022/06/09 09:35:40;;;;;;;2.30;1.20;;;23.60;77.40;;;;;;5075562;28;20370;-65
2022/06/09 09:38:06;;;;;;;2.72;1.25;;;24.10;74.30;;;;;;5087242;28;20036;-66
2022/06/09 09:40:39;;;;;;;2.60;0.93;;;24.40;73.80;;;;;;5086857;28;20051;-66
2022/06/09 09:43:21;;;;;;;3.28;1.35;;;24.70;68.90;;;;;;5075830;28;20044;-66
2022/06/09 09:45:50;;;;;;;4.35;0.90;;;25.30;66.80;;;;;;5084866;28;20040;-65
2022/06/09 09:48:19;;;;;;;4.33;1.30;;;26.20;64.60;;;;;;5071418;28;20045;-65
2022/06/09 09:50:59;;;;;;;3.00;1.15;;;26.30;63.80;;;;;;5073386;28;20053;-65
2022/06/09 09:53:32;;;;;;;3.90;1.13;;;26.40;60.10;;;;;;5088456;28;20388;-66
2022/06/09 09:56:01;;;;;;;2.60;0.88;;;27.20;62.90;;;;;;5076039;28;20472;-66
2022/06/09 09:58:53;;;;;;;2.95;1.25;;;27.90;60.60;;;;;;5091668;28;20067;-65
2022/06/09 10:01:22;;;;;;;3.35;1.05;;;28.50;52.70;;;;;;5075195;28;20511;-66
2022/06/09 10:09:44;;;;;;;4.45;1.08;;;28.30;54.60;;;;;;5080380;28;20381;-66
2022/06/09 10:12:16;;;;;;;2.92;1.00;;;28.60;49.50;;;;;;5073394;28;20036;-67
2022/06/09 10:14:48;;;;;;;4.18;1.00;;;29.20;50.40;;;;;;5070609;28;20037;-66
2022/06/09 10:17:38;;;;;;;4.22;1.10;;;29.10;50.00;;;;;;5071929;28;20037;-66
2022/06/09 10:20:25;;;;;;;2.47;1.00;;;29.80;52.50;;;;;;5068601;28;20056;-66
2022/06/09 10:23:16;;;;;;;3.45;1.10;;;30.30;50.80;;;;;;5073037;28;20033;-66
2022/06/09 10:25:50;;;;;;;3.92;0.93;;;31.30;48.90;;;;;;5070765;28;20068;-66
2022/06/09 10:28:43;;;;;;;2.90;0.80;;;30.80;48.10;;;;;;5086489;28;20162;-65
2022/06/09 10:31:15;;;;;;;1.63;0.70;;;29.60;44.90;;;;;;5070509;28;20404;-65
2022/06/09 10:33:54;;;;;;;4.18;1.20;;;29.90;47.60;;;;;;5077229;28;20048;-66
2022/06/09 10:36:29;;;;;;;3.92;1.25;;;29.00;42.00;;;;;;5079882;28;20036;-65
2022/06/09 10:39:11;;;;;;;4.40;1.33;;;29.90;45.80;;;;;;5086536;28;20039;-65
2022/06/09 10:41:59;;;;;;;6.18;1.10;;;30.70;43.50;;;;;;5083604;28;20093;-66
2022/06/09 10:44:34;;;;;;;2.28;0.93;;;30.90;44.20;;;;;;5085125;28;20055;-66
2022/06/09 10:56:41;;;;;;;3.60;0.98;;;32.30;44.00;;;;;;5042780;28;20048;-65
2022/06/09 10:59:15;;;;;;;4.72;0.90;;;30.50;40.70;;;;;;5074877;28;20043;-65
2022/06/09 11:01:40;;;;;;;4.82;0.80;;;30.50;43.20;;;;;;5075531;28;20036;-66
2022/06/09 11:04:15;;;;;;;3.25;0.80;;;29.10;44.70;;;;;;5074446;28;20036;-66
2022/06/09 11:06:58;;;;;;;3.70;0.98;;;27.40;44.40;;;;;;5069782;28;20096;-64
2022/06/09 11:09:54;;;;;;;3.20;0.90;;;26.70;46.80;;;;;;5073222;28;20044;-65
2022/06/09 11:12:49;;;;;;;1.60;0.90;;;25.70;47.50;;;;;;5078360;28;20046;-65
2022/06/09 11:15:36;;;;;;;2.90;0.77;;;25.10;49.20;;;;;;5093660;28;20044;-65
2022/06/09 11:18:12;;;;;;;2.88;0.65;;;24.90;50.80;;;;;;5091545;28;20040;-65
2022/06/09 11:21:15;;;;;;;2.58;0.70;;;24.40;49.30;;;;;;5083288;28;20460;-65
2022/06/09 11:23:46;;;;;;;2.35;0.80;;;24.50;49.60;;;;;;5074017;28;20070;-64
2022/06/09 11:26:39;;;;;;;3.75;1.00;;;24.20;51.10;;;;;;5085927;28;20035;-64
2022/06/09 11:29:23;;;;;;;2.03;0.77;;;24.00;53.10;;;;;;5091786;28;20036;-66
2022/06/09 11:32:09;;;;;;;4.32;1.20;;;24.00;53.50;;;;;;5091452;28;20043;-65
2022/06/09 11:34:58;;;;;;;4.05;0.90;;;24.00;54.40;;;;;;5081746;28;20051;-64
2022/06/09 11:37:45;;;;;;;6.28;1.15;;;23.90;54.00;;;;;;5072979;28;20044;-64
2022/06/09 11:40:38;;;;;;;4.90;1.00;;;24.10;55.20;;;;;;5071307;28;20036;-65
2022/06/09 11:43:38;;;;;;;4.07;0.80;;;23.80;55.40;;;;;;5075930;28;20051;-65
2022/06/09 11:46:11;;;;;;;3.53;0.90;;;24.00;54.30;;;;;;5072263;28;20040;-65
2022/06/09 11:48:43;;;;;;;4.10;0.90;;;24.10;54.80;;;;;;5079863;28;20046;-65
2022/06/09 11:51:10;;;;;;;2.53;0.63;;;24.30;54.70;;;;;;5090702;28;20427;-64
2022/06/09 11:53:40;;;;;;;3.15;0.80;;;24.30;54.00;;;;;;5091670;28;20036;-63
2022/06/09 11:56:45;;;;;;;1.15;0.50;;;24.40;53.40;;;;;;5088487;28;20032;-64
2022/06/09 11:59:42;;;;;;;1.67;0.68;;;24.00;51.40;;;;;;5071065;28;20044;-65
2022/06/09 12:02:43;;;;;;;4.35;0.70;;;24.30;52.40;;;;;;5072825;28;20385;-64
2022/06/09 12:05:28;;;;;;;2.10;0.75;;;24.40;54.30;;;;;;5071429;28;20045;-65
2022/06/09 12:08:27;;;;;;;3.33;0.77;;;24.70;52.80;;;;;;5073375;28;20040;-65
2022/06/09 12:11:03;;;;;;;3.28;0.82;;;24.80;53.10;;;;;;5079557;28;20533;-65
2022/06/09 12:14:12;;;;;;;5.20;1.10;;;25.00;53.20;;;;;;5093799;28;20036;-64
2022/06/09 12:16:53;;;;;;;4.22;1.15;;;27.00;52.70;;;;;;5080756;28;20055;-65
2022/06/09 12:19:52;;;;;;;4.97;1.30;;;29.10;44.70;;;;;;5088034;28;20399;-65
2022/06/09 12:22:40;;;;;;;4.45;1.30;;;29.90;46.00;;;;;;5057513;28;20040;-66
2022/06/09 12:25:11;;;;;;;6.05;1.00;;;29.00;43.90;;;;;;5076213;28;20052;-64
2022/06/09 12:27:48;;;;;;;4.78;1.10;;;28.00;44.60;;;;;;5091837;28;20051;-65
2022/06/09 12:30:37;;;;;;;3.67;0.85;;;29.30;45.60;;;;;;5083699;28;20047;-66
2022/06/09 12:33:16;;;;;;;2.30;0.90;;;29.00;44.60;;;;;;5072299;28;20047;-65
2022/06/09 12:35:51;;;;;;;3.70;0.80;;;30.00;40.50;;;;;;5090543;28;20048;-65
2022/06/09 12:38:41;;;;;;;4.32;0.80;;;31.00;41.10;;;;;;5089913;28;20051;-65
2022/06/09 12:41:20;;;;;;;3.03;0.90;;;32.00;37.20;;;;;;5079303;28;20032;-66
2022/06/09 12:43:57;;;;;;;4.85;0.80;;;32.80;39.30;;;;;;5073223;28;20486;-65
2022/06/09 12:46:25;;;;;;;2.72;0.90;;;33.40;37.90;;;;;;5072439;28;20052;-66
2022/06/09 12:48:53;;;;;;;3.60;1.00;;;34.30;36.70;;;;;;5072316;28;20364;-65
2022/06/09 12:51:32;;;;;;;4.85;0.88;;;33.30;35.30;;;;;;5077563;28;20029;-64
2022/06/09 12:54:18;;;;;;;3.33;1.05;;;34.30;35.80;;;;;;5081923;28;20142;-64
2022/06/09 12:56:51;;;;;;;4.32;1.20;;;33.80;32.60;;;;;;5083742;28;20040;-65
2022/06/09 12:59:31;;;;;;;3.22;0.95;;;31.90;35.60;;;;;;5089235;28;20337;-64
2022/06/09 13:02:18;;;;;;;4.35;0.90;;;30.10;37.80;;;;;;5080439;28;20036;-64
2022/06/09 13:04:58;;;;;;;3.35;1.00;;;30.00;40.00;;;;;;5069774;28;20044;-66
2022/06/09 13:07:32;;;;;;;2.73;1.00;;;31.10;38.20;;;;;;5072099;28;20431;-64
2022/06/09 13:10:22;;;;;;;4.00;0.90;;;32.20;36.80;;;;;;5070617;28;20377;-65
2022/06/09 13:12:52;;;;;;;4.85;0.82;;;33.20;36.70;;;;;;5088965;28;20093;-66
2022/06/09 13:15:24;;;;;;;3.70;1.08;;;32.00;32.60;;;;;;5092084;28;20526;-64
2022/06/09 13:17:50;;;;;;;2.63;1.00;;;31.20;36.20;;;;;;5080133;28;20036;-64
2022/06/09 13:20:20;;;;;;;3.53;0.90;;;32.00;35.70;;;;;;5073924;28;20043;-65
2022/06/09 13:22:47;;;;;;;3.53;1.08;;;32.60;34.30;;;;;;5087569;28;20083;-65
2022/06/09 13:25:24;;;;;;;5.18;0.70;;;32.70;34.00;;;;;;5078291;28;20045;-64
2022/06/09 13:27:50;;;;;;;3.38;0.98;;;33.90;32.50;;;;;;5077895;28;20477;-65